createdAt,value
2023-03-19T00:00:37.264Z,16.35
2023-03-19T00:03:04.555Z,18.35
2023-03-19T00:05:31.991Z,16.35
2023-03-19T00:07:59.595Z,15.68
2023-03-19T00:10:27.145Z,14.10
2023-03-19T00:12:54.367Z,18.85
2023-03-19T00:15:21.709Z,19.13
2023-03-19T00:17:49.355Z,21.13
2023-03-19T00:20:18.540Z,18.92
2023-03-19T00:22:46.438Z,16.92
2023-03-19T00:25:14.251Z,19.80
2023-03-19T00:27:43.552Z,15.98
2023-03-19T00:30:12.014Z,18.47
2023-03-19T00:32:39.999Z,16.98
2023-03-19T00:35:07.470Z,20.48
2023-03-19T00:37:35.052Z,20.15
2023-03-19T00:40:05.334Z,24.08
2023-03-19T00:42:32.476Z,17.67
2023-03-19T00:44:59.935Z,16.55
2023-03-19T00:47:28.308Z,16.10
2023-03-19T00:49:56.257Z,20.30
2023-03-19T00:52:23.706Z,26.17
2023-03-19T00:54:50.573Z,20.23
2023-03-19T00:57:17.982Z,20.73
2023-03-19T00:59:45.018Z,18.90
2023-03-19T01:02:12.234Z,20.60
2023-03-19T01:04:39.799Z,20.53
2023-03-19T01:07:07.272Z,20.40
2023-03-19T01:09:36.461Z,22.83
2023-03-19T01:12:05.468Z,23.07
2023-03-19T01:14:32.803Z,20.37
2023-03-19T01:17:00.176Z,21.67
2023-03-19T01:19:27.926Z,27.07
2023-03-19T01:21:55.136Z,21.60
2023-03-19T01:24:22.381Z,20.47
2023-03-19T01:26:49.552Z,19.80
2023-03-19T01:29:16.868Z,16.80
2023-03-19T01:31:44.132Z,28.97
2023-03-19T01:34:11.305Z,22.03
2023-03-19T01:36:41.586Z,18.60
2023-03-19T01:39:08.690Z,19.70
2023-03-19T01:41:35.870Z,19.20
2023-03-19T01:44:03.000Z,21.03
2023-03-19T01:46:32.085Z,24.13
2023-03-19T01:49:00.912Z,23.03
2023-03-19T01:51:33.846Z,22.00
2023-03-19T01:54:02.603Z,23.70
2023-03-19T01:56:34.235Z,15.93
2023-03-19T01:59:04.226Z,23.90
2023-03-19T02:01:34.682Z,19.53
2023-03-19T02:04:01.850Z,22.73
2023-03-19T02:06:30.552Z,23.80
2023-03-19T02:09:00.972Z,28.07
2023-03-19T02:11:28.776Z,27.03
2023-03-19T02:13:56.411Z,29.63
2023-03-19T02:16:23.931Z,27.77
2023-03-19T02:18:51.326Z,29.47
2023-03-19T02:21:19.352Z,28.93
2023-03-19T02:24:07.114Z,25.03
2023-03-19T02:26:34.657Z,27.67
2023-03-19T02:29:02.202Z,26.20
2023-03-19T02:31:29.416Z,22.43
2023-03-19T02:34:06.397Z,21.10
2023-03-19T02:36:41.084Z,25.30
2023-03-19T02:39:10.559Z,22.13
2023-03-19T02:41:38.842Z,24.17
2023-03-19T02:44:07.235Z,22.30
2023-03-19T02:46:34.656Z,25.17
2023-03-19T02:49:02.208Z,23.93
2023-03-19T02:51:29.448Z,23.60
2023-03-19T02:53:56.945Z,26.80
2023-03-19T02:56:27.425Z,23.43
2023-03-19T02:58:54.541Z,29.73
2023-03-19T03:01:21.831Z,25.43
2023-03-19T03:03:49.015Z,25.77
2023-03-19T03:06:16.684Z,23.77
2023-03-19T03:08:43.680Z,25.13
2023-03-19T03:11:10.783Z,16.83
2023-03-19T03:13:40.466Z,25.30
2023-03-19T03:16:08.048Z,21.70
2023-03-19T03:18:35.161Z,25.00
2023-03-19T03:21:02.412Z,39.10
2023-03-19T03:23:30.826Z,33.97
2023-03-19T03:25:57.972Z,33.67
2023-03-19T03:28:25.084Z,37.17
2023-03-19T03:30:52.302Z,31.03
2023-03-19T03:33:19.368Z,37.67
2023-03-19T03:35:46.920Z,27.50
2023-03-19T03:38:13.923Z,31.83
2023-03-19T03:40:42.341Z,26.93
2023-03-19T03:43:10.632Z,26.80
2023-03-19T03:45:37.904Z,21.33
2023-03-19T03:48:05.154Z,20.93
2023-03-19T03:50:35.216Z,19.10
2023-03-19T03:53:02.936Z,18.23
2023-03-19T03:55:30.971Z,17.27
2023-03-19T03:57:58.563Z,16.10
2023-03-19T04:00:25.873Z,18.57
2023-03-19T04:02:53.540Z,17.20
2023-03-19T04:05:20.838Z,22.63
2023-03-19T04:07:48.461Z,29.87
2023-03-19T04:10:15.809Z,29.17
2023-03-19T04:12:43.219Z,28.63
2023-03-19T04:15:11.236Z,26.93
2023-03-19T04:17:42.488Z,28.60
2023-03-19T04:20:10.234Z,23.33
2023-03-19T04:22:37.446Z,21.30
2023-03-19T04:25:05.637Z,19.63
2023-03-19T04:27:32.746Z,24.37
2023-03-19T04:29:59.980Z,22.13
2023-03-19T04:32:27.489Z,17.47
2023-03-19T04:34:54.516Z,21.03
2023-03-19T04:37:21.691Z,18.97
2023-03-19T04:39:50.193Z,18.73
2023-03-19T04:42:17.667Z,20.43
2023-03-19T04:44:45.557Z,23.17
2023-03-19T04:47:12.730Z,20.87
2023-03-19T04:49:39.748Z,22.03
2023-03-19T04:52:06.930Z,19.83
2023-03-19T04:54:35.343Z,18.73
2023-03-19T04:57:02.707Z,17.43
2023-03-19T04:59:29.919Z,17.43
2023-03-19T05:01:57.142Z,19.67
2023-03-19T05:04:27.801Z,20.00
2023-03-19T05:06:54.971Z,24.37
2023-03-19T05:09:22.441Z,24.33
2023-03-19T05:11:49.482Z,22.57
2023-03-19T05:14:16.424Z,26.07
2023-03-19T05:16:43.724Z,22.10
2023-03-19T05:19:10.767Z,19.87
2023-03-19T05:21:38.236Z,22.13
2023-03-19T05:24:05.643Z,20.17
2023-03-19T05:26:32.925Z,15.83
2023-03-19T05:28:59.886Z,19.87
2023-03-19T05:31:27.969Z,16.87
2023-03-19T05:33:55.560Z,13.67
2023-03-19T05:36:23.413Z,17.23
2023-03-19T05:38:50.618Z,13.37
2023-03-19T05:41:18.579Z,29.97
2023-03-19T05:43:45.644Z,33.90
2023-03-19T05:46:12.889Z,31.17
2023-03-19T05:48:39.981Z,24.57
2023-03-19T05:51:06.949Z,34.30
2023-03-19T05:53:34.325Z,32.10
2023-03-19T05:56:01.882Z,24.83
2023-03-19T05:58:29.070Z,22.13
2023-03-19T06:00:57.319Z,28.27
2023-03-19T06:03:25.549Z,28.65
2023-03-19T06:05:53.046Z,28.20
2023-03-19T06:08:20.465Z,32.13
2023-03-19T06:10:49.329Z,28.98
2023-03-19T06:13:18.250Z,31.15
2023-03-19T06:15:45.319Z,26.42
2023-03-19T06:18:12.518Z,23.73
2023-03-19T06:20:39.693Z,29.80
2023-03-19T06:23:10.786Z,26.10
2023-03-19T06:25:38.220Z,28.85
2023-03-19T06:28:06.395Z,36.85
2023-03-19T06:30:33.915Z,40.22
2023-03-19T06:33:01.468Z,35.50
2023-03-19T06:35:28.655Z,35.67
2023-03-19T06:37:56.297Z,60.85
2023-03-19T06:40:24.081Z,45.30
2023-03-19T06:42:53.053Z,64.05
2023-03-19T06:45:21.077Z,35.53
2023-03-19T06:47:48.732Z,27.67
2023-03-19T06:50:18.943Z,25.00
2023-03-19T06:52:46.326Z,22.60
2023-03-19T06:55:14.021Z,26.15
2023-03-19T06:57:42.494Z,31.48
2023-03-19T07:00:12.227Z,31.40
2023-03-19T07:02:39.532Z,39.03
2023-03-19T07:05:07.029Z,37.97
2023-03-19T07:07:38.969Z,35.53
2023-03-19T07:10:07.474Z,22.83
2023-03-19T07:12:34.698Z,23.88
2023-03-19T07:15:03.331Z,21.45
2023-03-19T07:17:31.840Z,18.35
2023-03-19T07:19:58.985Z,16.90
2023-03-19T07:22:26.364Z,19.13
2023-03-19T07:24:53.398Z,17.17
2023-03-19T07:27:21.533Z,17.63
2023-03-19T07:29:48.759Z,21.25
2023-03-19T07:32:16.301Z,20.80
2023-03-19T07:34:43.773Z,23.65
2023-03-19T07:37:11.353Z,20.33
2023-03-19T07:39:39.939Z,18.95
2023-03-19T07:42:07.506Z,12.30
2023-03-19T07:44:34.994Z,17.15
2023-03-19T07:47:02.479Z,16.55
2023-03-19T07:49:30.246Z,29.30
2023-03-19T07:51:57.433Z,18.55
2023-03-19T07:54:27.717Z,19.52
2023-03-19T07:56:55.163Z,15.80
2023-03-19T07:59:22.131Z,18.25
2023-03-19T08:01:49.385Z,16.88
2023-03-19T08:04:22.276Z,20.35
2023-03-19T08:06:49.438Z,17.83
2023-03-19T08:09:17.190Z,22.00
2023-03-19T08:11:45.004Z,20.67
2023-03-19T08:14:12.104Z,20.48
2023-03-19T08:16:39.481Z,19.67
2023-03-19T08:19:07.084Z,16.98
2023-03-19T08:21:34.369Z,17.80
2023-03-19T08:24:05.024Z,19.83
2023-03-19T08:26:33.314Z,18.55
2023-03-19T08:29:00.859Z,19.20
2023-03-19T08:31:28.064Z,21.05
2023-03-19T08:33:56.339Z,17.27
2023-03-19T08:36:28.383Z,17.92
2023-03-19T08:38:55.884Z,15.82
2023-03-19T08:41:25.790Z,15.90
2023-03-19T08:43:53.893Z,13.65
2023-03-19T08:46:24.467Z,14.30
2023-03-19T08:48:51.469Z,15.10
2023-03-19T08:51:18.542Z,11.70
2023-03-19T08:53:46.159Z,20.05
2023-03-19T08:56:13.562Z,22.20
2023-03-19T08:58:42.759Z,11.88
2023-03-19T09:01:11.293Z,13.50
2023-03-19T09:03:39.397Z,23.13
2023-03-19T09:06:08.177Z,17.15
2023-03-19T09:08:36.708Z,13.55
2023-03-19T09:11:04.291Z,17.17
2023-03-19T09:13:32.107Z,13.35
2023-03-19T09:15:59.556Z,9.68
2023-03-19T09:18:26.796Z,11.75
2023-03-19T09:20:54.976Z,13.13
2023-03-19T09:23:22.847Z,12.32
2023-03-19T09:25:50.182Z,11.88
2023-03-19T09:28:17.635Z,14.90
2023-03-19T09:30:48.509Z,10.85
2023-03-19T09:33:16.830Z,14.30
2023-03-19T09:35:49.920Z,17.60
2023-03-19T09:38:17.197Z,12.70
2023-03-19T09:40:49.542Z,12.77
2023-03-19T09:43:39.760Z,12.82
2023-03-19T09:46:12.998Z,12.18
2023-03-19T09:48:47.552Z,14.02
2023-03-19T09:51:19.061Z,14.13
2023-03-19T09:53:52.049Z,10.43
2023-03-19T09:56:19.971Z,13.77
2023-03-19T09:58:48.585Z,9.63
2023-03-19T10:01:42.198Z,11.05
2023-03-19T10:04:29.525Z,10.18
2023-03-19T10:07:06.199Z,8.05
2023-03-19T10:09:53.486Z,11.75
2023-03-19T10:12:35.798Z,9.50
2023-03-19T10:15:39.250Z,9.23
2023-03-19T10:18:06.307Z,10.35
2023-03-19T10:20:49.003Z,9.98
2023-03-19T10:23:25.900Z,8.98
2023-03-19T10:25:55.496Z,11.48
2023-03-19T10:28:23.567Z,13.23
2023-03-19T10:31:12.811Z,9.85
2023-03-19T10:34:00.173Z,11.45
2023-03-19T10:36:28.344Z,11.32
2023-03-19T10:38:56.582Z,10.13
2023-03-19T10:41:39.791Z,9.68
2023-03-19T10:44:10.823Z,19.05
2023-03-19T10:46:41.164Z,24.95
2023-03-19T10:49:15.395Z,15.63
2023-03-19T10:51:48.221Z,9.32
2023-03-19T10:54:26.584Z,8.63
2023-03-19T10:56:59.223Z,10.13
2023-03-19T10:59:38.820Z,9.25
2023-03-19T11:02:17.714Z,8.15
2023-03-19T11:04:45.004Z,10.88
2023-03-19T11:07:13.884Z,9.70
2023-03-19T11:09:42.798Z,9.00
2023-03-19T11:12:19.810Z,8.85
2023-03-19T11:14:51.957Z,9.73
2023-03-19T11:17:26.520Z,6.90
2023-03-19T11:19:55.289Z,6.53
2023-03-19T11:22:26.372Z,6.80
2023-03-19T11:24:57.902Z,9.23
2023-03-19T11:27:37.367Z,7.10
2023-03-19T11:30:08.734Z,6.65
2023-03-19T11:32:49.382Z,7.03
2023-03-19T11:35:29.374Z,7.63
2023-03-19T11:38:03.780Z,7.28
2023-03-19T11:40:34.880Z,6.85
2023-03-19T11:43:05.896Z,8.65
2023-03-19T11:45:42.225Z,6.25
2023-03-19T11:48:25.242Z,7.38
2023-03-19T11:51:08.242Z,5.53
2023-03-19T11:53:53.913Z,9.35
2023-03-19T11:56:48.822Z,8.55
2023-03-19T11:59:38.724Z,8.02
2023-03-19T12:02:09.769Z,7.00
2023-03-19T12:04:56.273Z,6.40
2023-03-19T12:07:29.050Z,8.70
2023-03-19T12:09:59.242Z,5.45
2023-03-19T12:12:30.054Z,6.57
2023-03-19T12:15:10.189Z,8.63
2023-03-19T12:17:56.807Z,7.18
2023-03-19T12:20:28.680Z,7.55
2023-03-19T12:23:07.672Z,9.20
2023-03-19T12:25:43.430Z,10.02
2023-03-19T12:28:10.446Z,8.88
2023-03-19T12:30:43.220Z,9.13
2023-03-19T12:33:10.886Z,6.85
2023-03-19T12:35:39.383Z,6.13
2023-03-19T12:38:18.465Z,8.88
2023-03-19T12:41:05.831Z,7.88
2023-03-19T12:43:35.996Z,9.40
2023-03-19T12:46:22.195Z,8.13
2023-03-19T12:48:52.316Z,8.32
2023-03-19T12:51:21.353Z,8.45
2023-03-19T12:53:51.480Z,7.90
2023-03-19T12:56:38.804Z,8.50
2023-03-19T12:59:12.402Z,6.90
2023-03-19T13:01:46.077Z,6.10
2023-03-19T13:04:34.612Z,11.40
2023-03-19T13:07:20.123Z,7.85
2023-03-19T13:10:02.758Z,8.75
2023-03-19T13:12:33.218Z,9.90
2023-03-19T13:15:07.023Z,8.97
2023-03-19T13:17:43.108Z,9.90
2023-03-19T13:20:21.089Z,10.45
2023-03-19T13:22:55.025Z,7.30
2023-03-19T13:25:24.596Z,7.65
2023-03-19T13:27:55.552Z,7.95
2023-03-19T13:30:24.514Z,10.70
2023-03-19T13:33:15.450Z,9.52
2023-03-19T13:35:52.549Z,9.13
2023-03-19T13:38:35.015Z,8.68
2023-03-19T13:41:02.624Z,9.35
2023-03-19T13:43:30.069Z,6.30
2023-03-19T13:46:06.645Z,7.10
2023-03-19T13:48:41.036Z,9.23
2023-03-19T13:51:20.540Z,10.35
2023-03-19T13:53:54.705Z,7.47
2023-03-19T13:56:30.109Z,8.23
2023-03-19T13:59:16.028Z,7.47
2023-03-19T14:01:45.307Z,8.10
2023-03-19T14:04:21.411Z,7.95
2023-03-19T14:07:01.253Z,8.55
2023-03-19T14:09:31.947Z,13.35
2023-03-19T14:12:18.142Z,8.02
2023-03-19T14:14:45.014Z,9.63
2023-03-19T14:17:38.090Z,9.18
2023-03-19T14:20:12.563Z,8.05
2023-03-19T14:22:59.043Z,8.93
2023-03-19T14:25:27.805Z,6.78
2023-03-19T14:27:56.127Z,8.27
2023-03-19T14:30:48.755Z,8.00
2023-03-19T14:33:30.185Z,7.18
2023-03-19T14:38:28.961Z,7.22
2023-03-19T14:40:56.536Z,7.93
2023-03-19T14:43:40.980Z,6.45
2023-03-19T14:46:18.233Z,8.90
2023-03-19T14:48:51.383Z,16.02
2023-03-19T14:51:34.666Z,10.35
2023-03-19T14:54:25.277Z,8.95
2023-03-19T14:56:52.961Z,8.17
2023-03-19T14:59:20.309Z,10.05
2023-03-19T15:01:52.739Z,8.82
2023-03-19T15:04:22.429Z,9.32
2023-03-19T15:06:54.022Z,10.82
2023-03-19T15:09:27.347Z,14.40
2023-03-19T15:12:13.559Z,20.35
2023-03-19T15:14:41.150Z,18.92
2023-03-19T15:17:20.183Z,19.52
2023-03-19T15:19:47.594Z,12.05
2023-03-19T15:22:16.574Z,13.05
2023-03-19T15:24:44.193Z,13.85
2023-03-19T15:27:18.000Z,13.35
2023-03-19T15:29:49.243Z,13.95
2023-03-19T15:32:49.668Z,10.60
2023-03-19T15:35:19.547Z,10.30
2023-03-19T15:37:50.490Z,9.40
2023-03-19T15:40:19.323Z,10.93
2023-03-19T15:42:48.065Z,11.13
2023-03-19T15:45:17.224Z,9.52
2023-03-19T15:47:50.561Z,10.75
2023-03-19T15:50:19.380Z,10.38
2023-03-19T15:52:48.494Z,9.20
2023-03-19T15:55:16.920Z,10.18
2023-03-19T15:57:45.030Z,12.60
2023-03-19T16:00:14.171Z,16.50
2023-03-19T16:02:43.143Z,17.67
2023-03-19T16:05:25.789Z,19.60
2023-03-19T16:08:00.875Z,44.55
2023-03-19T16:10:39.537Z,39.13
2023-03-19T16:13:23.224Z,42.75
2023-03-19T16:15:58.647Z,65.53
2023-03-19T16:18:28.788Z,66.50
2023-03-19T16:21:06.150Z,73.47
2023-03-19T16:23:59.613Z,42.35
2023-03-19T16:26:39.957Z,31.33
2023-03-19T16:29:17.698Z,30.95
2023-03-19T16:31:47.027Z,39.83
2023-03-19T16:34:23.593Z,30.88
2023-03-19T16:36:51.278Z,32.53
2023-03-19T16:39:24.730Z,39.65
2023-03-19T16:42:11.144Z,51.08
2023-03-19T16:44:43.428Z,67.20
2023-03-19T16:47:15.000Z,69.80
2023-03-19T16:52:15.236Z,73.85
2023-03-19T16:54:42.688Z,57.85
2023-03-19T16:57:12.724Z,45.55
2023-03-19T16:59:40.336Z,62.10
2023-03-19T17:02:17.154Z,53.38
2023-03-19T17:04:44.800Z,37.90
2023-03-19T17:07:14.397Z,59.08
2023-03-19T17:09:42.271Z,51.25
2023-03-19T17:12:15.584Z,62.03
2023-03-19T17:14:43.195Z,80.80
2023-03-19T17:17:20.870Z,73.32
2023-03-19T17:19:55.468Z,62.90
2023-03-19T17:22:23.841Z,52.75
2023-03-19T17:24:51.584Z,39.55
2023-03-19T17:27:18.957Z,40.25
2023-03-19T17:29:46.314Z,42.90
2023-03-19T17:32:17.561Z,26.40
2023-03-19T17:34:45.430Z,31.65
2023-03-19T17:37:15.377Z,38.85
2023-03-19T17:39:46.170Z,37.40
2023-03-19T17:42:21.850Z,24.92
2023-03-19T17:44:53.341Z,22.05
2023-03-19T17:49:48.316Z,36.38
2023-03-19T17:52:19.885Z,44.95
2023-03-19T17:54:49.713Z,38.95
2023-03-19T17:57:18.600Z,35.45
2023-03-19T17:59:46.575Z,31.65
2023-03-19T18:02:23.987Z,39.78
2023-03-19T18:04:54.639Z,37.10
2023-03-19T18:07:25.106Z,27.10
2023-03-19T18:09:55.906Z,25.73
2023-03-19T18:12:24.561Z,29.38
2023-03-19T18:14:51.971Z,34.70
2023-03-19T18:17:19.878Z,30.48
2023-03-19T18:19:53.894Z,19.85
2023-03-19T18:22:25.133Z,22.40
2023-03-19T18:24:54.174Z,31.23
2023-03-19T18:27:26.951Z,25.92
2023-03-19T18:29:54.155Z,25.33
2023-03-19T18:32:27.609Z,25.70
2023-03-19T18:34:55.534Z,28.83
2023-03-19T18:37:23.482Z,25.60
2023-03-19T18:39:51.756Z,27.98
2023-03-19T18:42:20.329Z,27.75
2023-03-19T18:44:47.909Z,26.45
2023-03-19T18:47:16.685Z,26.10
2023-03-19T18:49:44.221Z,28.60
2023-03-19T18:52:19.308Z,30.40
2023-03-19T18:54:48.109Z,26.83
2023-03-19T18:57:16.484Z,24.73
2023-03-19T18:59:44.417Z,93.38
2023-03-19T19:02:30.954Z,138.40
2023-03-19T19:04:59.391Z,148.35
2023-03-19T19:07:26.477Z,160.15
2023-03-19T19:09:53.924Z,75.78
2023-03-19T19:12:25.820Z,38.08
2023-03-19T19:14:53.624Z,70.68
2023-03-19T19:17:25.027Z,108.38
2023-03-19T19:19:52.433Z,120.82
2023-03-19T19:22:20.604Z,129.75
2023-03-19T19:24:48.757Z,120.03
2023-03-19T19:27:24.040Z,142.57
2023-03-19T19:29:51.704Z,277.45
2023-03-19T19:32:21.242Z,412.85
2023-03-19T19:34:48.580Z,354.25
2023-03-19T19:37:16.691Z,289.90
2023-03-19T19:39:44.024Z,328.83
2023-03-19T19:42:15.634Z,198.02
2023-03-19T19:44:46.546Z,113.47
2023-03-19T19:47:16.042Z,56.83
2023-03-19T19:49:44.460Z,43.40
2023-03-19T19:52:16.163Z,32.08
2023-03-19T19:54:44.119Z,25.60
2023-03-19T19:57:28.693Z,21.90
2023-03-19T19:59:56.400Z,21.05
2023-03-19T20:02:30.327Z,30.52
2023-03-19T20:05:00.682Z,28.70
2023-03-19T20:07:29.193Z,30.77
2023-03-19T20:09:57.121Z,43.35
2023-03-19T20:12:29.307Z,52.22
2023-03-19T20:14:57.966Z,72.57
2023-03-19T20:17:28.501Z,83.95
2023-03-19T20:19:56.351Z,108.78
2023-03-19T20:22:23.584Z,105.10
2023-03-19T20:24:51.702Z,94.30
2023-03-19T20:27:19.024Z,94.57
2023-03-19T20:29:46.332Z,108.15
2023-03-19T20:32:22.649Z,100.68
2023-03-19T20:34:51.120Z,68.80
2023-03-19T20:37:18.257Z,54.90
2023-03-19T20:39:45.575Z,39.78
2023-03-19T20:42:15.321Z,33.53
2023-03-19T20:44:44.676Z,29.48
2023-03-19T20:47:17.262Z,28.30
2023-03-19T20:49:44.527Z,20.63
2023-03-19T20:52:13.491Z,21.27
2023-03-19T20:54:42.418Z,25.50
2023-03-19T20:57:17.245Z,27.60
2023-03-19T20:59:46.943Z,35.05
2023-03-19T21:02:21.412Z,28.13
2023-03-19T21:04:49.413Z,21.48
2023-03-19T21:07:29.972Z,23.77
2023-03-19T21:10:00.336Z,24.65
2023-03-19T21:12:30.187Z,25.40
2023-03-19T21:15:14.283Z,28.10
2023-03-19T21:17:42.436Z,27.15
2023-03-19T21:20:21.166Z,36.63
2023-03-19T21:22:51.886Z,72.40
2023-03-19T21:25:23.515Z,93.17
2023-03-19T21:27:53.411Z,94.40
2023-03-19T21:30:21.615Z,128.07
2023-03-19T21:32:50.604Z,131.70
2023-03-19T21:35:20.811Z,137.90
2023-03-19T21:37:49.400Z,138.77
2023-03-19T21:40:21.745Z,113.70
2023-03-19T21:42:57.717Z,123.47
2023-03-19T21:45:28.454Z,103.13
2023-03-19T21:48:14.728Z,99.40
2023-03-19T21:50:44.348Z,85.72
2023-03-19T21:53:12.666Z,69.72
2023-03-19T21:55:40.598Z,72.07
2023-03-19T21:58:13.257Z,74.10
2023-03-19T22:00:41.587Z,66.80
2023-03-19T22:03:14.826Z,64.40
2023-03-19T22:05:42.773Z,53.90
2023-03-19T22:08:15.990Z,43.05
2023-03-19T22:10:43.829Z,37.30
2023-03-19T22:13:23.091Z,31.50
2023-03-19T22:15:56.248Z,32.20
2023-03-19T22:18:24.534Z,25.67
2023-03-19T22:20:53.125Z,30.30
2023-03-19T22:23:21.247Z,31.50
2023-03-19T22:25:50.838Z,32.67
2023-03-19T22:28:18.259Z,28.70
2023-03-19T22:30:47.194Z,22.90
2023-03-19T22:33:21.942Z,26.03
2023-03-19T22:35:51.030Z,43.43
2023-03-19T22:38:20.058Z,46.25
2023-03-19T22:40:57.900Z,55.80
2023-03-19T22:43:25.853Z,44.40
2023-03-19T22:45:58.436Z,32.47
2023-03-19T22:48:29.765Z,30.53
2023-03-19T22:50:58.627Z,21.40
2023-03-19T22:53:28.953Z,26.50
2023-03-19T22:55:56.986Z,30.10
2023-03-19T22:58:24.751Z,32.50
2023-03-19T23:00:52.924Z,35.20
2023-03-19T23:03:20.616Z,37.67
2023-03-19T23:05:52.847Z,40.00
2023-03-19T23:08:20.991Z,41.73
2023-03-19T23:10:49.847Z,43.77
2023-03-19T23:13:17.804Z,38.97
2023-03-19T23:15:50.819Z,38.67
2023-03-19T23:18:20.000Z,37.73
2023-03-19T23:20:48.111Z,36.80
2023-03-19T23:23:16.971Z,32.23
2023-03-19T23:25:45.967Z,36.97
2023-03-19T23:28:21.844Z,31.33
2023-03-19T23:30:50.979Z,35.03
2023-03-19T23:33:19.411Z,35.60
2023-03-19T23:35:47.929Z,32.17
2023-03-19T23:38:15.986Z,35.13
2023-03-19T23:40:47.187Z,26.50
2023-03-19T23:43:31.038Z,25.70
2023-03-19T23:45:59.263Z,25.20
2023-03-19T23:48:28.667Z,22.63
2023-03-19T23:50:56.368Z,21.30
2023-03-19T23:53:25.371Z,21.63
2023-03-19T23:55:55.680Z,22.47
2023-03-19T23:58:25.225Z,18.65
